Time;durP1;ratioP1;P1;durP2;ratioP2;P2;SDS_P1;SDS_P2;PMS_P1;PMS_P2;Temp;Humidity;BMP_temperature;BMP_pressure;BME280_temperature;BME280_humidity;BME280_pressure;Samples;Min_cycle;Max_cycle;Signal;HPM_P1;HPM_P2
2023/11/24 00:02:03;;;;;;;24.33;4.25;;;7.50;99.90;;;;;;5139459;27;20239;-46
2023/11/24 00:04:29;;;;;;;27.95;4.40;;;7.60;99.90;;;;;;5141748;27;20199;-45
2023/11/24 00:06:56;;;;;;;39.13;5.20;;;7.60;99.90;;;;;;5122869;27;20195;-47
2023/11/24 00:09:27;;;;;;;29.27;5.15;;;7.70;99.90;;;;;;5139570;27;20276;-45
2023/11/24 00:11:53;;;;;;;34.40;4.60;;;7.80;99.90;;;;;;5140899;27;20689;-47
2023/11/24 00:14:19;;;;;;;23.08;3.63;;;7.80;99.90;;;;;;5139577;27;20252;-48
2023/11/24 00:16:47;;;;;;;31.25;4.18;;;7.90;99.90;;;;;;5122485;27;20199;-46
2023/11/24 00:19:16;;;;;;;33.72;4.22;;;7.90;99.90;;;;;;5141567;27;20234;-48
2023/11/24 00:21:43;;;;;;;24.52;4.38;;;7.90;99.90;;;;;;5122207;27;20192;-48
2023/11/24 00:24:09;;;;;;;21.88;4.20;;;7.90;99.90;;;;;;5120686;27;20179;-50
2023/11/24 00:26:35;;;;;;;36.13;4.28;;;8.00;99.90;;;;;;5106117;27;20202;-50
2023/11/24 00:29:02;;;;;;;23.17;4.22;;;8.00;99.90;;;;;;5139324;27;20554;-49
2023/11/24 00:31:28;;;;;;;13.43;3.13;;;8.10;99.90;;;;;;5104585;27;20192;-47
2023/11/24 00:33:55;;;;;;;24.58;3.88;;;8.20;99.90;;;;;;5139777;27;20565;-50
2023/11/24 00:36:22;;;;;;;32.88;4.80;;;8.20;99.90;;;;;;5139064;27;20180;-49
2023/11/24 00:38:51;;;;;;;27.80;3.72;;;8.20;99.90;;;;;;5121916;27;20732;-44
2023/11/24 00:41:18;;;;;;;22.25;3.58;;;8.20;99.90;;;;;;5105670;27;20252;-48
2023/11/24 00:43:48;;;;;;;16.55;2.65;;;8.10;99.90;;;;;;5105709;27;20523;-47
2023/11/24 00:46:15;;;;;;;11.82;2.90;;;8.10;99.90;;;;;;5139247;27;20203;-50
2023/11/24 00:48:41;;;;;;;23.80;4.05;;;8.00;99.90;;;;;;5103146;27;21570;-48
2023/11/24 00:51:07;;;;;;;16.80;3.42;;;8.00;99.90;;;;;;5138984;27;20188;-52
2023/11/24 00:53:34;;;;;;;16.38;2.97;;;7.90;99.90;;;;;;5121043;27;20749;-48
2023/11/24 00:56:00;;;;;;;21.20;3.65;;;7.90;99.90;;;;;;5121815;27;20215;-48
2023/11/24 00:58:26;;;;;;;19.58;3.30;;;7.90;99.90;;;;;;5120931;27;20837;-51
2023/11/24 01:00:53;;;;;;;19.05;3.80;;;7.80;99.90;;;;;;5086290;27;20191;-48
2023/11/24 01:03:23;;;;;;;21.35;3.33;;;7.80;99.90;;;;;;5122481;27;20242;-46
2023/11/24 01:05:51;;;;;;;26.45;4.15;;;7.80;99.90;;;;;;5140461;27;20557;-45
2023/11/24 01:08:17;;;;;;;21.40;3.45;;;7.80;99.90;;;;;;5120846;27;20221;-46
2023/11/24 01:10:46;;;;;;;24.88;3.95;;;7.80;99.90;;;;;;5122360;27;20187;-46
2023/11/24 01:13:13;;;;;;;23.65;3.70;;;7.80;99.90;;;;;;5139189;27;21178;-45
2023/11/24 01:15:39;;;;;;;22.70;3.50;;;7.80;99.90;;;;;;5120526;27;20190;-46
2023/11/24 01:18:06;;;;;;;23.30;4.22;;;7.90;99.90;;;;;;5139603;27;20183;-49
2023/11/24 01:20:36;;;;;;;18.67;4.07;;;7.90;99.90;;;;;;5122218;27;20187;-48
2023/11/24 01:23:04;;;;;;;22.58;3.38;;;7.90;99.90;;;;;;5138584;27;20244;-48
2023/11/24 01:25:31;;;;;;;23.25;3.55;;;8.00;99.90;;;;;;5140631;27;20774;-47
2023/11/24 01:27:58;;;;;;;20.67;3.60;;;8.00;99.90;;;;;;5139875;27;20210;-46
2023/11/24 01:30:24;;;;;;;24.80;3.58;;;8.10;99.90;;;;;;5121855;27;22240;-47
2023/11/24 01:32:51;;;;;;;15.52;2.75;;;8.10;99.90;;;;;;5138248;27;20270;-46
2023/11/24 01:35:17;;;;;;;15.98;3.22;;;8.20;99.90;;;;;;5139044;27;20258;-50
2023/11/24 01:37:43;;;;;;;19.17;2.97;;;8.20;99.90;;;;;;5138118;27;20187;-46
2023/11/24 01:40:10;;;;;;;15.52;2.85;;;8.20;99.90;;;;;;5121564;27;20228;-47
2023/11/24 01:42:37;;;;;;;14.90;2.55;;;8.20;99.90;;;;;;5119301;27;20242;-50
2023/11/24 01:45:07;;;;;;;17.48;2.53;;;8.20;99.90;;;;;;5121490;27;20578;-51
2023/11/24 01:47:33;;;;;;;12.68;2.45;;;8.20;99.90;;;;;;5102748;27;20212;-46
2023/11/24 01:50:00;;;;;;;13.07;2.22;;;8.20;99.90;;;;;;5139964;27;20202;-46
2023/11/24 01:52:26;;;;;;;13.25;2.50;;;8.10;99.90;;;;;;5138253;27;20206;-49
2023/11/24 01:54:53;;;;;;;14.77;2.78;;;8.10;99.90;;;;;;5138376;27;20207;-47
2023/11/24 01:57:21;;;;;;;13.90;2.92;;;8.10;99.90;;;;;;5139196;27;20938;-48
2023/11/24 01:59:48;;;;;;;21.73;2.90;;;8.00;99.90;;;;;;5104093;27;20191;-50
2023/11/24 02:02:20;;;;;;;21.30;2.75;;;8.00;99.90;;;;;;5120499;27;20228;-44
2023/11/24 02:04:47;;;;;;;16.15;2.72;;;7.90;99.90;;;;;;5122761;27;20241;-45
2023/11/24 02:07:13;;;;;;;16.60;2.13;;;7.90;99.90;;;;;;5137891;27;20501;-46
2023/11/24 02:09:39;;;;;;;14.02;2.28;;;7.90;99.90;;;;;;5139342;27;20192;-47
2023/11/24 02:12:07;;;;;;;23.70;3.38;;;7.90;99.90;;;;;;5138576;27;20321;-48
2023/11/24 02:14:33;;;;;;;11.18;2.92;;;7.90;99.90;;;;;;5137812;27;20192;-46
2023/11/24 02:16:59;;;;;;;23.23;3.25;;;7.90;99.90;;;;;;5119695;27;20190;-45
2023/11/24 02:19:28;;;;;;;15.88;3.03;;;7.90;99.90;;;;;;5138745;27;21707;-47
2023/11/24 02:21:54;;;;;;;15.57;2.72;;;7.90;99.90;;;;;;5124655;27;20184;-48
2023/11/24 02:24:20;;;;;;;12.70;2.83;;;7.90;99.90;;;;;;5086069;27;20207;-46
2023/11/24 02:26:46;;;;;;;18.40;3.67;;;8.00;99.90;;;;;;5121504;27;20235;-50
2023/11/24 02:29:12;;;;;;;16.55;2.33;;;7.90;99.90;;;;;;5119984;27;20599;-49
2023/11/24 02:31:39;;;;;;;15.13;2.53;;;7.90;99.90;;;;;;5098852;27;20194;-46
2023/11/24 02:34:07;;;;;;;13.93;2.58;;;8.00;99.90;;;;;;5138238;27;20180;-48
2023/11/24 02:36:36;;;;;;;19.17;2.80;;;8.00;99.90;;;;;;5120074;27;20602;-52
2023/11/24 02:39:03;;;;;;;19.17;2.92;;;8.10;99.90;;;;;;5137691;27;20230;-46
2023/11/24 02:41:30;;;;;;;20.15;2.85;;;8.10;99.90;;;;;;5139030;27;20223;-46
2023/11/24 02:43:56;;;;;;;16.92;2.63;;;8.20;99.90;;;;;;5119054;27;20184;-45
2023/11/24 02:46:22;;;;;;;16.52;2.60;;;8.20;99.90;;;;;;5118570;27;20207;-48
2023/11/24 02:48:47;;;;;;;9.20;1.98;;;8.20;99.90;;;;;;5120436;27;20187;-46
2023/11/24 02:51:14;;;;;;;14.55;2.30;;;8.20;99.90;;;;;;5138110;27;20188;-47
2023/11/24 02:53:42;;;;;;;10.85;2.35;;;8.20;99.90;;;;;;5138957;27;20207;-45
2023/11/24 02:56:08;;;;;;;18.25;2.60;;;8.20;99.90;;;;;;5124434;27;21142;-53
2023/11/24 02:58:36;;;;;;;8.48;2.35;;;8.20;99.90;;;;;;5124798;27;20187;-47
2023/11/24 03:01:03;;;;;;;13.45;2.72;;;8.20;99.90;;;;;;5124143;27;20180;-45
2023/11/24 03:03:29;;;;;;;9.85;2.13;;;8.20;99.90;;;;;;5140688;27;20220;-48
2023/11/24 03:05:55;;;;;;;6.88;1.63;;;8.20;99.90;;;;;;5143398;27;20188;-48
2023/11/24 03:08:23;;;;;;;9.57;2.33;;;8.20;99.90;;;;;;5122759;27;20221;-47
2023/11/24 03:10:49;;;;;;;16.65;2.88;;;8.30;99.90;;;;;;5140710;27;20191;-48
2023/11/24 03:13:15;;;;;;;9.68;2.10;;;8.30;99.90;;;;;;5123810;27;20184;-42
2023/11/24 03:15:41;;;;;;;10.45;2.13;;;8.00;99.90;;;;;;5141207;27;20580;-44
2023/11/24 03:18:08;;;;;;;8.57;1.63;;;7.40;99.90;;;;;;5124696;27;20611;-42
2023/11/24 03:20:34;;;;;;;6.60;1.77;;;7.00;99.90;;;;;;5089850;27;20294;-42
2023/11/24 03:23:00;;;;;;;10.50;1.85;;;6.70;99.90;;;;;;5122692;27;20697;-41
2023/11/24 03:25:26;;;;;;;9.98;1.83;;;6.60;99.90;;;;;;5140498;27;20227;-44
2023/11/24 03:27:52;;;;;;;7.30;1.52;;;6.50;99.90;;;;;;5142487;27;20203;-42
2023/11/24 03:30:19;;;;;;;6.72;1.77;;;6.40;99.90;;;;;;5141592;27;20172;-42
2023/11/24 03:32:45;;;;;;;10.52;1.52;;;6.40;99.90;;;;;;5140458;27;20259;-46
2023/11/24 03:35:12;;;;;;;6.97;1.30;;;6.40;99.90;;;;;;5138808;27;20677;-42
2023/11/24 03:37:38;;;;;;;11.30;2.10;;;6.40;99.90;;;;;;5123832;27;20188;-42
2023/11/24 03:40:05;;;;;;;10.32;1.88;;;6.40;99.90;;;;;;5124142;27;20184;-45
2023/11/24 03:42:31;;;;;;;11.68;1.83;;;6.40;99.90;;;;;;5139953;27;20188;-43
2023/11/24 03:44:57;;;;;;;9.60;1.90;;;6.40;99.90;;;;;;5119352;27;20574;-43
2023/11/24 03:47:23;;;;;;;9.13;2.00;;;6.40;99.90;;;;;;5140312;27;20226;-42
2023/11/24 03:49:49;;;;;;;13.02;1.83;;;6.40;99.90;;;;;;5123804;27;21133;-45
2023/11/24 03:52:15;;;;;;;16.23;2.10;;;6.40;99.90;;;;;;5142070;27;20184;-43
2023/11/24 03:54:42;;;;;;;6.38;1.95;;;6.40;99.90;;;;;;5122951;27;20720;-43
2023/11/24 03:57:08;;;;;;;12.13;2.15;;;6.40;99.90;;;;;;5139280;27;20184;-47
2023/11/24 03:59:34;;;;;;;17.27;1.70;;;6.40;99.90;;;;;;5122606;27;20199;-44
2023/11/24 04:01:59;;;;;;;16.73;2.22;;;6.40;99.90;;;;;;5139100;27;20180;-43
2023/11/24 04:04:25;;;;;;;14.88;2.35;;;6.50;99.90;;;;;;5139385;27;20570;-48
2023/11/24 04:06:51;;;;;;;18.52;2.42;;;6.50;99.90;;;;;;5104943;27;20216;-45
2023/11/24 04:09:17;;;;;;;12.82;2.55;;;6.60;99.90;;;;;;5140473;27;20587;-46
2023/11/24 04:11:43;;;;;;;9.52;1.75;;;6.70;99.90;;;;;;5139305;27;20215;-42
2023/11/24 04:14:09;;;;;;;8.98;2.20;;;6.70;99.90;;;;;;5141545;27;20185;-45
2023/11/24 04:16:36;;;;;;;13.98;2.00;;;6.70;99.90;;;;;;5139705;27;20673;-45
2023/11/24 04:19:02;;;;;;;9.93;2.45;;;6.60;99.90;;;;;;5141312;27;20240;-46
2023/11/24 04:21:29;;;;;;;14.57;2.28;;;6.50;99.90;;;;;;5121523;27;20199;-45
2023/11/24 04:23:55;;;;;;;14.13;2.28;;;6.40;99.90;;;;;;5139331;27;20199;-45
2023/11/24 04:26:21;;;;;;;17.50;2.10;;;6.40;99.90;;;;;;5121891;27;20663;-45
2023/11/24 04:28:47;;;;;;;9.57;1.90;;;6.40;99.90;;;;;;5124115;27;20184;-44
2023/11/24 04:31:13;;;;;;;15.50;1.95;;;6.30;99.90;;;;;;5138829;27;20707;-43
2023/11/24 04:33:40;;;;;;;11.05;2.05;;;6.30;99.90;;;;;;5105369;27;20179;-51
2023/11/24 04:36:07;;;;;;;10.93;2.35;;;6.40;99.90;;;;;;5122606;27;20495;-44
2023/11/24 04:38:33;;;;;;;12.75;2.33;;;6.40;99.90;;;;;;5141053;27;20195;-47
2023/11/24 04:41:00;;;;;;;16.83;2.58;;;6.40;99.90;;;;;;5139111;27;20192;-45
2023/11/24 04:43:27;;;;;;;7.95;1.73;;;6.40;99.90;;;;;;5121352;27;20722;-47
2023/11/24 04:45:53;;;;;;;10.57;1.90;;;6.40;99.90;;;;;;5139079;27;20675;-47
2023/11/24 04:48:19;;;;;;;11.20;2.30;;;6.40;99.90;;;;;;5104410;27;20205;-43
2023/11/24 04:50:45;;;;;;;11.98;2.22;;;6.40;99.90;;;;;;5105165;27;20636;-47
2023/11/24 04:53:11;;;;;;;11.13;2.10;;;6.40;99.90;;;;;;5140003;27;21328;-44
2023/11/24 04:55:36;;;;;;;13.98;1.98;;;6.40;99.90;;;;;;5121998;27;20207;-49
2023/11/24 04:58:02;;;;;;;8.27;1.90;;;6.40;99.90;;;;;;5140128;27;20184;-43
2023/11/24 05:00:28;;;;;;;15.30;2.20;;;6.40;99.90;;;;;;5120375;27;20192;-46
2023/11/24 05:02:54;;;;;;;15.95;2.28;;;6.50;99.90;;;;;;5140423;27;20275;-48
2023/11/24 05:05:20;;;;;;;18.90;2.28;;;6.40;99.90;;;;;;5137195;27;20183;-48
2023/11/24 05:07:46;;;;;;;10.05;2.25;;;6.30;99.90;;;;;;5120576;27;20203;-44
2023/11/24 05:10:12;;;;;;;10.00;1.85;;;6.20;99.90;;;;;;5140197;27;20635;-44
2023/11/24 05:12:38;;;;;;;12.55;1.70;;;6.10;99.90;;;;;;5138323;27;20184;-45
2023/11/24 05:15:08;;;;;;;9.93;1.75;;;5.90;99.90;;;;;;5138522;27;20183;-40
2023/11/24 05:17:35;;;;;;;4.93;1.45;;;5.80;99.90;;;;;;5121269;27;20279;-43
2023/11/24 05:20:02;;;;;;;8.93;1.80;;;5.80;99.90;;;;;;5138706;27;20188;-40
2023/11/24 05:22:27;;;;;;;9.25;1.70;;;5.80;99.90;;;;;;5140209;27;20646;-41
2023/11/24 05:24:53;;;;;;;16.73;2.10;;;5.80;99.90;;;;;;5137983;27;20236;-43
2023/11/24 05:27:19;;;;;;;13.13;2.22;;;5.90;99.90;;;;;;5136958;27;21195;-44
2023/11/24 05:29:46;;;;;;;11.77;2.40;;;5.90;99.90;;;;;;5120502;27;20689;-41
2023/11/24 05:32:11;;;;;;;11.90;2.30;;;6.00;99.90;;;;;;5138665;27;20203;-43
2023/11/24 05:34:37;;;;;;;19.08;3.20;;;6.00;99.90;;;;;;5139371;27;20554;-41
2023/11/24 05:37:07;;;;;;;8.68;1.75;;;6.00;99.90;;;;;;5136863;27;20195;-44
2023/11/24 05:39:35;;;;;;;19.02;2.80;;;6.00;99.90;;;;;;5108337;27;20215;-43
2023/11/24 05:42:01;;;;;;;16.40;2.58;;;5.90;99.90;;;;;;5138106;27;20275;-42
2023/11/24 05:44:27;;;;;;;15.98;2.38;;;5.90;99.90;;;;;;5138675;27;20219;-45
2023/11/24 05:46:53;;;;;;;15.23;2.35;;;5.90;99.90;;;;;;5137911;27;20300;-44
2023/11/24 05:49:18;;;;;;;14.65;2.13;;;5.90;99.90;;;;;;5139762;27;20224;-43
2023/11/24 05:51:44;;;;;;;6.50;1.65;;;6.00;99.90;;;;;;5122247;27;20176;-43
2023/11/24 05:54:12;;;;;;;7.47;1.55;;;6.00;99.90;;;;;;5139033;27;20650;-41
2023/11/24 05:56:39;;;;;;;5.88;1.55;;;5.80;99.90;;;;;;5139571;27;20211;-41
2023/11/24 05:59:06;;;;;;;6.85;1.42;;;5.70;99.90;;;;;;5138343;27;20636;-43
2023/11/24 06:01:32;;;;;;;16.00;1.73;;;5.60;99.90;;;;;;5137933;27;20267;-41
2023/11/24 06:03:58;;;;;;;14.52;1.77;;;5.50;99.90;;;;;;5120319;27;20223;-41
2023/11/24 06:06:24;;;;;;;10.57;1.90;;;5.50;99.90;;;;;;5102885;27;20215;-41
2023/11/24 06:08:50;;;;;;;9.98;1.80;;;5.50;99.90;;;;;;5120813;27;20194;-41
2023/11/24 06:11:17;;;;;;;11.48;1.58;;;5.40;99.90;;;;;;5137597;27;20245;-42
2023/11/24 06:13:45;;;;;;;15.27;1.90;;;5.40;99.90;;;;;;5138995;27;20191;-44
2023/11/24 06:16:11;;;;;;;13.98;2.10;;;5.30;99.90;;;;;;5119840;27;20287;-42
2023/11/24 06:18:40;;;;;;;15.38;2.08;;;5.30;99.90;;;;;;5137932;27;20176;-43
2023/11/24 06:21:10;;;;;;;11.85;1.90;;;5.40;99.90;;;;;;5137709;27;20208;-43
2023/11/24 06:23:37;;;;;;;15.63;2.80;;;5.30;99.90;;;;;;5139563;27;20228;-41
2023/11/24 06:26:03;;;;;;;11.95;1.90;;;5.40;99.90;;;;;;5136586;27;20222;-42
2023/11/24 06:28:29;;;;;;;12.27;2.13;;;5.40;99.90;;;;;;5136027;27;20545;-42
2023/11/24 06:30:55;;;;;;;13.93;2.10;;;5.50;99.90;;;;;;5141518;27;20192;-41
2023/11/24 06:33:21;;;;;;;12.77;2.40;;;5.60;99.90;;;;;;5104624;27;20275;-43
2023/11/24 06:35:47;;;;;;;10.52;1.88;;;5.70;99.90;;;;;;5143141;27;20274;-41
2023/11/24 06:38:14;;;;;;;19.15;2.72;;;5.70;99.90;;;;;;5141835;27;20210;-41
2023/11/24 06:40:40;;;;;;;11.30;2.10;;;5.70;99.90;;;;;;5125463;27;20221;-43
2023/11/24 06:43:06;;;;;;;17.90;2.28;;;5.70;99.90;;;;;;5141513;27;20184;-42
2023/11/24 06:45:32;;;;;;;12.73;2.50;;;5.70;99.90;;;;;;5124827;27;20184;-42
2023/11/24 06:47:57;;;;;;;11.95;2.03;;;5.80;99.90;;;;;;5124966;27;20238;-43
2023/11/24 06:50:25;;;;;;;12.25;2.58;;;5.80;99.90;;;;;;5139048;27;20217;-41
2023/11/24 06:52:51;;;;;;;21.63;2.88;;;5.90;99.90;;;;;;5143174;27;20871;-44
2023/11/24 06:55:17;;;;;;;17.17;2.88;;;5.90;99.90;;;;;;5141279;27;20194;-41
2023/11/24 06:57:43;;;;;;;15.00;2.47;;;6.00;99.90;;;;;;5140496;27;20273;-44
2023/11/24 07:00:16;;;;;;;19.02;2.90;;;6.10;99.90;;;;;;5140920;27;20202;-40
2023/11/24 07:02:41;;;;;;;21.60;3.20;;;6.10;99.90;;;;;;5138916;27;20211;-45
2023/11/24 07:05:09;;;;;;;17.33;3.08;;;6.10;99.90;;;;;;5123633;27;20206;-46
2023/11/24 07:07:34;;;;;;;11.77;2.13;;;6.20;99.90;;;;;;5123582;27;20220;-44
2023/11/24 07:10:00;;;;;;;19.30;2.85;;;6.30;99.90;;;;;;5123109;27;20210;-41
2023/11/24 07:12:26;;;;;;;18.80;3.00;;;6.30;99.90;;;;;;5141557;27;20188;-43
2023/11/24 07:14:52;;;;;;;23.65;3.67;;;6.40;99.90;;;;;;5140554;27;20237;-44
2023/11/24 07:17:18;;;;;;;16.08;2.60;;;6.50;99.90;;;;;;5141309;27;20183;-46
2023/11/24 07:19:44;;;;;;;19.13;3.28;;;6.50;99.90;;;;;;5139562;27;21341;-44
2023/11/24 07:22:11;;;;;;;11.85;2.97;;;6.60;99.90;;;;;;5140872;27;20204;-46
2023/11/24 07:24:38;;;;;;;14.00;2.28;;;6.60;99.90;;;;;;5141424;27;20232;-45
2023/11/24 07:27:05;;;;;;;13.82;2.30;;;6.60;99.90;;;;;;5141910;27;20250;-46
2023/11/24 07:29:33;;;;;;;13.40;2.42;;;6.70;99.90;;;;;;5140748;27;20184;-47
2023/11/24 07:32:01;;;;;;;8.32;1.77;;;6.70;99.90;;;;;;5139930;27;20203;-45
2023/11/24 07:34:27;;;;;;;14.90;2.42;;;6.80;99.90;;;;;;5139224;27;20840;-46
2023/11/24 07:36:53;;;;;;;17.88;2.85;;;6.80;99.90;;;;;;5139189;27;20184;-45
2023/11/24 07:39:20;;;;;;;13.02;2.20;;;6.90;99.90;;;;;;5141004;27;20285;-43
2023/11/24 07:41:46;;;;;;;19.25;2.85;;;6.80;99.90;;;;;;5104908;27;21050;-47
2023/11/24 07:44:13;;;;;;;14.00;2.65;;;6.90;99.90;;;;;;5139493;27;20215;-44
2023/11/24 07:46:39;;;;;;;18.23;2.95;;;6.90;99.90;;;;;;5140361;27;20291;-49
2023/11/24 07:49:05;;;;;;;16.13;2.50;;;6.90;99.90;;;;;;5139921;27;20271;-47
2023/11/24 07:51:31;;;;;;;15.55;2.70;;;7.00;99.90;;;;;;5140417;27;20188;-46
2023/11/24 07:53:57;;;;;;;17.75;2.58;;;6.90;99.90;;;;;;5140158;27;20180;-46
2023/11/24 07:56:23;;;;;;;22.58;3.10;;;7.00;99.90;;;;;;5140718;27;20238;-51
2023/11/24 07:58:49;;;;;;;17.52;3.17;;;7.00;99.90;;;;;;5141888;27;20647;-46
2023/11/24 08:01:15;;;;;;;26.85;3.10;;;7.00;99.90;;;;;;5139680;27;20188;-45
2023/11/24 08:03:40;;;;;;;18.10;3.13;;;7.00;99.90;;;;;;5139628;27;20219;-44
2023/11/24 08:06:07;;;;;;;17.17;2.67;;;7.00;99.90;;;;;;5121578;27;20176;-48
2023/11/24 08:08:34;;;;;;;25.83;3.13;;;7.10;99.90;;;;;;5122335;27;20389;-47
2023/11/24 08:10:59;;;;;;;18.98;3.40;;;7.00;99.90;;;;;;5120839;27;20184;-43
2023/11/24 08:13:25;;;;;;;16.50;2.90;;;7.10;99.90;;;;;;5140354;27;20266;-49
2023/11/24 08:15:52;;;;;;;19.67;2.90;;;7.10;99.90;;;;;;5140344;27;20183;-48
2023/11/24 08:18:18;;;;;;;17.42;2.88;;;7.20;99.90;;;;;;5138942;27;20215;-49
2023/11/24 08:20:44;;;;;;;15.52;2.72;;;7.30;99.90;;;;;;5123049;27;20187;-50
2023/11/24 08:23:15;;;;;;;15.48;3.25;;;7.40;99.90;;;;;;5139003;27;20670;-45
2023/11/24 08:25:41;;;;;;;7.43;1.70;;;7.40;99.90;;;;;;5136865;27;20176;-47
2023/11/24 08:28:07;;;;;;;8.93;2.13;;;7.40;99.90;;;;;;5136675;27;20218;-47
2023/11/24 08:30:33;;;;;;;12.57;2.40;;;7.20;99.90;;;;;;5116376;27;20666;-47
2023/11/24 08:32:59;;;;;;;11.00;2.00;;;7.10;99.90;;;;;;5138635;27;20191;-48
2023/11/24 08:35:25;;;;;;;11.68;2.03;;;6.90;99.90;;;;;;5121267;27;20199;-49
2023/11/24 08:37:51;;;;;;;6.55;1.52;;;6.80;99.90;;;;;;5137358;27;20191;-47
2023/11/24 08:40:17;;;;;;;9.02;1.83;;;6.70;99.90;;;;;;5135601;27;20196;-50
2023/11/24 08:42:44;;;;;;;5.00;1.33;;;6.60;99.90;;;;;;5134048;27;20190;-46
2023/11/24 08:45:13;;;;;;;10.13;1.70;;;6.60;99.90;;;;;;5135229;27;20703;-48
2023/11/24 08:47:41;;;;;;;10.35;2.25;;;6.50;99.90;;;;;;5133967;27;20265;-49
2023/11/24 08:50:13;;;;;;;11.52;1.80;;;6.50;99.90;;;;;;5137555;27;20176;-47
2023/11/24 08:52:39;;;;;;;9.98;1.80;;;6.50;99.90;;;;;;5126788;27;20726;-49
2023/11/24 08:55:06;;;;;;;14.25;2.65;;;6.60;99.90;;;;;;5135272;27;20195;-52
2023/11/24 08:57:33;;;;;;;7.43;1.52;;;6.70;99.90;;;;;;5137496;27;20663;-51
2023/11/24 08:59:58;;;;;;;14.52;2.70;;;6.80;99.90;;;;;;5138676;27;20188;-49
2023/11/24 09:02:28;;;;;;;13.23;2.47;;;6.90;99.90;;;;;;5139168;27;20723;-49
2023/11/24 09:04:54;;;;;;;16.33;2.35;;;7.10;99.90;;;;;;5089573;27;20196;-50
2023/11/24 09:07:21;;;;;;;12.77;2.28;;;7.30;99.90;;;;;;5136806;27;20647;-48
2023/11/24 09:09:46;;;;;;;10.95;2.10;;;7.40;99.90;;;;;;5118797;27;20211;-49
2023/11/24 09:12:12;;;;;;;12.45;2.20;;;7.40;99.90;;;;;;5120028;27;20199;-49
2023/11/24 09:14:40;;;;;;;11.48;2.38;;;7.50;99.90;;;;;;5118082;27;20241;-48
2023/11/24 09:17:06;;;;;;;15.02;2.42;;;7.60;99.90;;;;;;5137051;27;20192;-54
2023/11/24 09:19:33;;;;;;;8.20;1.92;;;7.60;99.90;;;;;;5134418;27;20194;-50
2023/11/24 09:22:00;;;;;;;16.15;2.78;;;7.60;99.90;;;;;;5134571;27;20195;-52
2023/11/24 09:24:27;;;;;;;15.52;2.80;;;7.70;99.90;;;;;;5136524;27;20626;-49
2023/11/24 09:26:55;;;;;;;15.85;2.75;;;7.80;99.90;;;;;;5136079;27;20291;-48
2023/11/24 09:29:21;;;;;;;16.70;2.78;;;8.00;99.90;;;;;;5119133;27;20194;-48
2023/11/24 09:31:47;;;;;;;14.63;3.33;;;8.10;99.90;;;;;;5130182;27;20181;-50
2023/11/24 09:34:13;;;;;;;19.75;2.80;;;8.20;99.90;;;;;;5133847;27;20265;-47
2023/11/24 09:36:41;;;;;;;19.13;3.47;;;8.30;99.90;;;;;;5137741;27;20196;-53
2023/11/24 09:39:17;;;;;;;17.45;3.63;;;8.40;99.90;;;;;;5138568;27;20215;-48
2023/11/24 09:41:50;;;;;;;21.40;3.05;;;8.40;99.90;;;;;;5138282;27;20278;-50
2023/11/24 09:44:17;;;;;;;18.08;3.60;;;8.40;99.90;;;;;;5136907;27;20347;-51
2023/11/24 09:46:43;;;;;;;22.58;3.42;;;8.30;99.90;;;;;;5137699;27;20208;-53
2023/11/24 09:49:10;;;;;;;9.05;2.22;;;8.30;99.90;;;;;;5138215;27;20252;-49
2023/11/24 09:51:38;;;;;;;20.60;3.15;;;8.30;99.90;;;;;;5119118;27;20172;-48
2023/11/24 09:54:06;;;;;;;13.60;2.47;;;8.30;99.90;;;;;;5103065;27;20191;-51
2023/11/24 09:56:35;;;;;;;14.52;2.80;;;8.40;99.90;;;;;;5137749;27;20178;-47
2023/11/24 09:59:08;;;;;;;18.33;2.72;;;8.50;99.90;;;;;;5136886;27;20213;-45
2023/11/24 10:01:37;;;;;;;14.55;3.00;;;8.50;99.90;;;;;;5136536;27;20227;-43
2023/11/24 10:04:08;;;;;;;13.18;2.83;;;8.50;99.90;;;;;;5138950;27;20306;-51
2023/11/24 10:06:39;;;;;;;10.68;2.20;;;8.40;99.90;;;;;;5107451;27;20204;-46
2023/11/24 10:09:06;;;;;;;11.23;2.75;;;7.80;99.90;;;;;;5122976;27;20287;-43
2023/11/24 10:11:34;;;;;;;32.60;4.28;;;7.20;99.90;;;;;;5140763;27;20176;-46
2023/11/24 10:14:04;;;;;;;23.30;3.40;;;6.70;99.90;;;;;;5142145;27;20203;-47
2023/11/24 10:16:30;;;;;;;25.17;3.67;;;6.50;99.90;;;;;;5141070;27;20215;-43
2023/11/24 10:18:59;;;;;;;5.93;1.80;;;6.40;99.90;;;;;;5124357;27;20226;-46
2023/11/24 10:21:28;;;;;;;4.13;1.00;;;6.40;99.90;;;;;;5141053;27;20730;-46
2023/11/24 10:23:54;;;;;;;7.85;1.55;;;6.30;99.90;;;;;;5141179;27;20203;-49
2023/11/24 10:26:21;;;;;;;6.82;1.48;;;6.30;99.90;;;;;;5121823;27;20586;-43
2023/11/24 10:28:47;;;;;;;8.48;1.65;;;6.40;99.90;;;;;;5123576;27;20214;-49
2023/11/24 10:31:13;;;;;;;6.32;1.63;;;6.40;99.90;;;;;;5124165;27;20175;-47
2023/11/24 10:33:49;;;;;;;19.33;2.35;;;6.40;99.90;;;;;;5142991;27;20184;-43
2023/11/24 10:36:17;;;;;;;5.63;1.85;;;6.50;99.90;;;;;;5125322;27;20207;-49
2023/11/24 10:38:45;;;;;;;15.63;2.58;;;6.70;99.90;;;;;;5105274;27;20599;-48
2023/11/24 10:41:22;;;;;;;9.63;2.05;;;6.70;99.90;;;;;;5121366;27;20921;-42
2023/11/24 10:43:49;;;;;;;13.75;2.85;;;6.50;99.90;;;;;;5139147;27;20184;-44
2023/11/24 10:46:22;;;;;;;11.88;2.10;;;6.20;99.90;;;;;;5123698;27;20271;-44
2023/11/24 10:49:05;;;;;;;14.00;2.17;;;6.00;99.90;;;;;;5141542;27;20185;-47
2023/11/24 10:51:58;;;;;;;9.60;1.70;;;5.90;99.90;;;;;;5141450;27;20187;-43
2023/11/24 10:54:39;;;;;;;16.38;2.58;;;6.00;99.90;;;;;;5138103;27;20297;-43
2023/11/24 10:57:06;;;;;;;3.88;1.25;;;6.10;99.90;;;;;;5138661;27;20219;-39
2023/11/24 10:59:36;;;;;;;14.13;2.10;;;6.20;99.90;;;;;;5143465;27;20192;-40
2023/11/24 11:02:06;;;;;;;19.33;1.95;;;5.90;99.90;;;;;;5140971;27;20602;-40
2023/11/24 11:04:36;;;;;;;19.40;2.65;;;5.60;99.90;;;;;;5141664;27;20314;-44
2023/11/24 11:07:17;;;;;;;9.68;1.67;;;5.40;99.90;;;;;;5141990;27;20226;-41
2023/11/24 11:09:58;;;;;;;12.80;2.30;;;5.20;99.90;;;;;;5142161;27;20232;-42
2023/11/24 11:12:39;;;;;;;13.32;2.10;;;5.10;99.90;;;;;;5126726;27;20192;-39
2023/11/24 11:15:10;;;;;;;19.30;3.22;;;5.10;99.90;;;;;;5140248;27;20176;-39
2023/11/24 11:17:37;;;;;;;16.38;2.70;;;5.10;99.90;;;;;;5141167;27;20256;-46
2023/11/24 11:20:19;;;;;;;16.65;2.58;;;5.10;99.90;;;;;;5140148;27;20274;-43
2023/11/24 11:22:47;;;;;;;18.17;2.55;;;5.10;99.90;;;;;;5139945;27;20184;-41
2023/11/24 11:25:13;;;;;;;24.27;3.40;;;5.20;99.90;;;;;;5143204;27;20184;-40
2023/11/24 11:27:40;;;;;;;17.20;2.33;;;5.30;99.90;;;;;;5138805;27;20207;-44
2023/11/24 11:30:18;;;;;;;22.65;3.25;;;5.40;99.90;;;;;;5139637;27;21234;-39
2023/11/24 11:32:44;;;;;;;13.77;2.13;;;5.60;99.90;;;;;;5139474;27;20202;-40
2023/11/24 11:35:10;;;;;;;11.10;1.60;;;5.70;99.90;;;;;;5122278;27;20196;-42
2023/11/24 11:37:36;;;;;;;9.85;2.17;;;5.80;99.90;;;;;;5140699;27;20176;-40
2023/11/24 11:40:14;;;;;;;11.13;2.22;;;5.90;99.90;;;;;;5139226;27;20253;-40
2023/11/24 11:42:58;;;;;;;9.45;1.90;;;6.10;99.90;;;;;;5122882;27;20215;-41
2023/11/24 11:45:29;;;;;;;8.52;1.48;;;6.30;99.90;;;;;;5138975;27;20596;-42
2023/11/24 11:48:02;;;;;;;15.00;2.20;;;6.50;99.90;;;;;;5137745;27;20573;-41
2023/11/24 11:50:29;;;;;;;11.55;2.47;;;6.60;99.90;;;;;;5140389;27;20179;-40
2023/11/24 11:53:00;;;;;;;17.38;2.20;;;6.80;99.90;;;;;;5122839;27;20203;-41
2023/11/24 11:55:28;;;;;;;8.05;1.58;;;7.00;99.90;;;;;;5141840;27;20192;-43
2023/11/24 11:58:00;;;;;;;8.70;1.67;;;7.00;99.90;;;;;;5139349;27;20187;-41
2023/11/24 12:00:30;;;;;;;4.78;0.88;;;6.50;99.90;;;;;;5119985;27;20180;-40
2023/11/24 12:02:57;;;;;;;4.25;1.30;;;6.10;99.90;;;;;;5142018;27;20223;-44
2023/11/24 12:05:24;;;;;;;3.33;1.02;;;5.80;99.90;;;;;;5120471;27;20192;-45
2023/11/24 12:07:53;;;;;;;6.43;1.70;;;5.60;99.90;;;;;;5137033;27;20200;-43
2023/11/24 12:10:20;;;;;;;11.88;2.05;;;5.50;99.90;;;;;;5139586;27;20180;-43
2023/11/24 12:12:47;;;;;;;13.20;2.20;;;5.50;99.90;;;;;;5141152;27;20701;-44
2023/11/24 12:15:20;;;;;;;21.83;2.58;;;5.50;99.90;;;;;;5106068;27;20180;-43
2023/11/24 12:17:56;;;;;;;24.48;3.22;;;5.60;99.90;;;;;;5140525;27;20188;-43
2023/11/24 12:20:23;;;;;;;23.00;3.05;;;5.70;99.90;;;;;;5119681;27;20222;-43
2023/11/24 12:22:52;;;;;;;25.50;3.65;;;5.80;99.90;;;;;;5139567;27;20210;-47
2023/11/24 12:25:18;;;;;;;19.33;3.30;;;5.90;99.90;;;;;;5141687;27;20190;-44
2023/11/24 12:27:44;;;;;;;19.63;3.30;;;5.90;99.90;;;;;;5120746;27;20208;-47
2023/11/24 12:30:14;;;;;;;9.63;1.92;;;6.00;99.90;;;;;;5121146;27;20276;-44
2023/11/24 12:32:41;;;;;;;11.20;2.15;;;6.00;99.90;;;;;;5134926;27;20246;-43
2023/11/24 12:35:08;;;;;;;15.90;2.53;;;6.10;99.90;;;;;;5138901;27;20216;-46
2023/11/24 12:37:37;;;;;;;17.60;3.17;;;6.20;99.90;;;;;;5140676;27;20222;-45
2023/11/24 12:40:03;;;;;;;18.70;3.22;;;6.30;99.90;;;;;;5140328;27;20642;-47
2023/11/24 12:42:30;;;;;;;16.70;2.58;;;6.40;99.90;;;;;;5100497;27;20203;-45
2023/11/24 12:44:59;;;;;;;12.02;2.65;;;6.50;99.90;;;;;;5140067;27;20184;-44
2023/11/24 12:47:25;;;;;;;8.82;1.88;;;6.60;99.90;;;;;;5137338;27;20338;-43
2023/11/24 12:49:58;;;;;;;12.10;2.10;;;6.70;99.90;;;;;;5138332;27;20179;-42